Time;durP1;ratioP1;P1;durP2;ratioP2;P2;SDS_P1;SDS_P2;PMS_P1;PMS_P2;Temp;Humidity;BMP_temperature;BMP_pressure;BME280_temperature;BME280_humidity;BME280_pressure;Samples;Min_cycle;Max_cycle;Signal;HPM_P1;HPM_P2
2023/08/05 00:00:58;;;;;;;3.65;2.30;;;;;;;;;;5065326;28;20088;-71
2023/08/05 00:03:25;;;;;;;5.03;2.92;;;;;;;;;;5064666;28;20053;-71
2023/08/05 00:05:53;;;;;;;6.07;2.70;;;;;;;;;;5061150;28;20123;-70
2023/08/05 00:08:20;;;;;;;3.08;2.15;;;;;;;;;;5062357;28;20345;-71
2023/08/05 00:10:47;;;;;;;4.43;2.10;;;;;;;;;;5065983;28;20048;-71
2023/08/05 00:13:16;;;;;;;4.43;2.50;;;;;;;;;;5064678;28;20379;-71
2023/08/05 00:15:43;;;;;;;3.38;2.40;;;;;;;;;;5067692;28;20041;-71
2023/08/05 00:18:11;;;;;;;3.20;2.25;;;;;;;;;;5063047;28;20060;-71
2023/08/05 00:20:38;;;;;;;5.50;2.53;;;;;;;;;;5067509;28;20483;-71
2023/08/05 00:23:05;;;;;;;4.97;2.25;;;;;;;;;;5066755;28;20047;-71
2023/08/05 00:25:33;;;;;;;3.65;2.17;;;;;;;;;;5064737;28;20500;-71
2023/08/05 00:28:00;;;;;;;5.70;2.17;;;;;;;;;;5067973;28;20045;-71
2023/08/05 00:30:28;;;;;;;5.72;2.55;;;;;;;;;;5067470;28;20071;-71
2023/08/05 00:32:56;;;;;;;4.05;2.20;;;;;;;;;;5067652;28;20130;-71
2023/08/05 00:35:23;;;;;;;4.80;2.60;;;;;;;;;;5067004;28;20131;-71
2023/08/05 00:37:50;;;;;;;6.20;2.30;;;;;;;;;;5066323;28;20056;-71
2023/08/05 00:40:17;;;;;;;4.53;2.30;;;;;;;;;;5065019;28;20044;-71
2023/08/05 00:42:45;;;;;;;5.85;2.38;;;;;;;;;;5063975;28;20060;-71
2023/08/05 00:45:12;;;;;;;3.38;1.98;;;;;;;;;;5066805;28;20043;-71
2023/08/05 00:47:41;;;;;;;3.35;1.90;;;;;;;;;;5065581;28;20506;-71
2023/08/05 00:50:09;;;;;;;3.25;1.85;;;;;;;;;;5066555;28;20056;-72
2023/08/05 00:52:38;;;;;;;3.45;1.90;;;;;;;;;;5065127;28;20507;-72
2023/08/05 00:55:06;;;;;;;4.47;2.20;;;;;;;;;;5066717;28;20045;-71
2023/08/05 00:57:34;;;;;;;4.03;1.98;;;;;;;;;;5065706;28;20515;-71
2023/08/05 01:00:01;;;;;;;6.07;2.25;;;;;;;;;;5065009;28;20052;-71
2023/08/05 01:02:28;;;;;;;5.88;2.28;;;;;;;;;;5060346;28;20048;-71
2023/08/05 01:04:57;;;;;;;3.10;1.88;;;;;;;;;;5065021;28;20048;-71
2023/08/05 01:07:24;;;;;;;3.53;1.92;;;;;;;;;;5066530;28;20056;-71
2023/08/05 01:09:51;;;;;;;3.08;1.80;;;;;;;;;;5058582;28;20060;-71
2023/08/05 01:12:19;;;;;;;5.18;1.95;;;;;;;;;;5064365;28;20124;-71
2023/08/05 01:14:46;;;;;;;4.63;2.08;;;;;;;;;;5061720;28;20040;-72
2023/08/05 01:17:13;;;;;;;6.45;2.40;;;;;;;;;;5057388;28;20127;-71
2023/08/05 01:19:41;;;;;;;3.95;2.13;;;;;;;;;;5067904;28;20454;-71
2023/08/05 01:22:12;;;;;;;4.15;1.98;;;;;;;;;;5064762;28;20150;-71
2023/08/05 01:24:43;;;;;;;5.10;2.15;;;;;;;;;;5062752;28;20063;-71
2023/08/05 01:27:11;;;;;;;3.03;2.10;;;;;;;;;;5062768;28;20075;-72
2023/08/05 01:29:39;;;;;;;3.58;1.80;;;;;;;;;;5059651;28;20991;-71
2023/08/05 01:32:07;;;;;;;6.70;2.00;;;;;;;;;;5063172;28;20348;-71
2023/08/05 01:34:34;;;;;;;4.28;2.42;;;;;;;;;;5066637;28;20048;-71
2023/08/05 01:37:02;;;;;;;2.75;2.00;;;;;;;;;;5069572;28;20052;-71
2023/08/05 01:39:29;;;;;;;4.18;2.22;;;;;;;;;;5068830;28;20048;-71
2023/08/05 01:41:56;;;;;;;3.75;2.13;;;;;;;;;;5068599;28;20055;-71
2023/08/05 01:44:25;;;;;;;5.15;2.08;;;;;;;;;;5067898;28;20511;-71
2023/08/05 01:46:52;;;;;;;4.95;2.25;;;;;;;;;;5069623;28;20353;-71
2023/08/05 01:49:19;;;;;;;4.78;2.40;;;;;;;;;;5067545;28;20484;-71
2023/08/05 01:51:46;;;;;;;3.72;2.13;;;;;;;;;;5066956;28;20059;-71
2023/08/05 01:54:15;;;;;;;5.38;1.95;;;;;;;;;;5063790;28;20049;-71
2023/08/05 01:56:42;;;;;;;3.55;1.73;;;;;;;;;;5067304;28;20515;-71
2023/08/05 01:59:09;;;;;;;6.35;1.77;;;;;;;;;;5064964;28;20060;-71
2023/08/05 02:01:44;;;;;;;4.10;2.30;;;;;;;;;;5069296;28;20048;-71
2023/08/05 02:04:11;;;;;;;4.18;2.00;;;;;;;;;;5069393;28;20484;-71
2023/08/05 02:06:38;;;;;;;4.35;2.40;;;;;;;;;;5068478;28;20049;-71
2023/08/05 02:09:06;;;;;;;4.10;2.40;;;;;;;;;;5068190;28;20048;-71
2023/08/05 02:11:33;;;;;;;4.00;1.63;;;;;;;;;;5065127;28;20056;-71
2023/08/05 02:14:00;;;;;;;4.13;2.08;;;;;;;;;;5070141;28;20131;-71
2023/08/05 02:16:28;;;;;;;3.92;1.90;;;;;;;;;;5064933;28;20510;-71
2023/08/05 02:18:56;;;;;;;3.40;1.70;;;;;;;;;;5066605;28;20048;-71
2023/08/05 02:21:24;;;;;;;4.45;2.17;;;;;;;;;;5066814;28;20052;-71
2023/08/05 02:23:52;;;;;;;4.60;2.25;;;;;;;;;;5065050;28;20055;-71
2023/08/05 02:26:19;;;;;;;4.25;1.95;;;;;;;;;;5065766;28;20488;-71
2023/08/05 02:28:47;;;;;;;4.32;2.40;;;;;;;;;;5068503;28;20052;-71
2023/08/05 02:31:14;;;;;;;3.97;2.22;;;;;;;;;;5065913;28;20052;-71
2023/08/05 02:33:41;;;;;;;4.78;1.80;;;;;;;;;;5067972;28;20511;-71
2023/08/05 02:36:10;;;;;;;3.78;2.10;;;;;;;;;;5062934;28;20059;-71
2023/08/05 02:38:37;;;;;;;5.15;2.17;;;;;;;;;;5062083;28;20424;-71
2023/08/05 02:41:07;;;;;;;3.75;2.50;;;;;;;;;;5065407;28;20044;-71
2023/08/05 02:43:34;;;;;;;4.68;2.38;;;;;;;;;;5066224;28;20458;-71
2023/08/05 02:46:02;;;;;;;6.18;2.42;;;;;;;;;;5064780;28;20048;-71
2023/08/05 02:48:29;;;;;;;4.57;2.33;;;;;;;;;;5069627;28;20063;-71
2023/08/05 02:50:57;;;;;;;4.57;2.15;;;;;;;;;;5066101;28;20052;-71
2023/08/05 02:53:25;;;;;;;4.47;2.08;;;;;;;;;;5067595;28;20398;-71
2023/08/05 02:55:52;;;;;;;4.55;2.17;;;;;;;;;;5067319;28;20551;-71
2023/08/05 02:58:20;;;;;;;7.57;2.53;;;;;;;;;;5067119;28;20055;-71
2023/08/05 03:00:47;;;;;;;8.68;2.38;;;;;;;;;;5064498;28;20114;-71
2023/08/05 03:03:15;;;;;;;2.78;1.83;;;;;;;;;;5067860;28;20048;-71
2023/08/05 03:05:43;;;;;;;4.20;2.10;;;;;;;;;;5064035;28;20514;-71
2023/08/05 03:08:10;;;;;;;5.40;2.22;;;;;;;;;;5070051;28;20078;-71
2023/08/05 03:10:40;;;;;;;6.15;2.22;;;;;;;;;;5065527;28;20060;-71
2023/08/05 03:13:08;;;;;;;3.70;2.20;;;;;;;;;;5066945;28;20052;-71
2023/08/05 03:15:36;;;;;;;3.65;2.00;;;;;;;;;;5066293;28;20041;-71
2023/08/05 03:18:03;;;;;;;7.18;2.10;;;;;;;;;;5064330;28;20060;-71
2023/08/05 03:20:34;;;;;;;4.90;2.25;;;;;;;;;;5066735;28;20558;-71
2023/08/05 03:23:01;;;;;;;5.97;2.28;;;;;;;;;;5064627;28;20052;-71
2023/08/05 03:25:28;;;;;;;4.80;2.00;;;;;;;;;;5060759;28;20448;-71
2023/08/05 03:27:56;;;;;;;5.68;2.00;;;;;;;;;;5065544;28;20065;-71
2023/08/05 03:30:24;;;;;;;4.65;1.75;;;;;;;;;;5065878;28;20527;-71
2023/08/05 03:32:51;;;;;;;3.92;1.83;;;;;;;;;;5062064;28;20131;-71
2023/08/05 03:35:19;;;;;;;4.00;2.08;;;;;;;;;;5065802;28;20380;-71
2023/08/05 03:37:46;;;;;;;4.45;2.53;;;;;;;;;;5066519;28;20048;-71
2023/08/05 03:40:13;;;;;;;6.40;1.75;;;;;;;;;;5064660;28;20056;-71
2023/08/05 03:42:41;;;;;;;4.82;2.15;;;;;;;;;;5059666;28;20498;-71
2023/08/05 03:45:08;;;;;;;3.00;1.90;;;;;;;;;;5062604;28;20044;-71
2023/08/05 03:47:37;;;;;;;5.93;2.40;;;;;;;;;;5060341;28;20513;-71
2023/08/05 03:50:05;;;;;;;5.45;2.35;;;;;;;;;;5062011;28;20048;-71
2023/08/05 03:52:32;;;;;;;4.20;1.90;;;;;;;;;;5061609;28;20060;-70
2023/08/05 03:54:59;;;;;;;5.85;2.15;;;;;;;;;;5065340;28;20055;-71
2023/08/05 03:57:27;;;;;;;6.22;2.20;;;;;;;;;;5062702;28;20056;-71
2023/08/05 03:59:54;;;;;;;4.90;2.47;;;;;;;;;;5064785;28;20053;-71
2023/08/05 04:02:21;;;;;;;3.10;2.08;;;;;;;;;;5061054;28;20056;-71
2023/08/05 04:04:50;;;;;;;5.65;2.03;;;;;;;;;;5063723;28;20052;-71
2023/08/05 04:07:19;;;;;;;7.45;2.13;;;;;;;;;;5064473;28;20044;-71
2023/08/05 04:09:46;;;;;;;5.70;2.13;;;;;;;;;;5067965;28;20095;-71
2023/08/05 04:12:14;;;;;;;5.43;2.28;;;;;;;;;;5063067;28;20071;-71
2023/08/05 04:14:44;;;;;;;3.63;2.20;;;;;;;;;;5060918;28;20114;-71
2023/08/05 04:17:14;;;;;;;6.75;2.10;;;;;;;;;;5062561;28;20059;-71
2023/08/05 04:19:41;;;;;;;6.53;2.25;;;;;;;;;;5059183;28;20068;-71
2023/08/05 04:22:10;;;;;;;4.18;2.20;;;;;;;;;;5059752;28;20706;-71
2023/08/05 04:24:37;;;;;;;5.22;2.30;;;;;;;;;;5055126;28;20049;-71
2023/08/05 04:27:05;;;;;;;4.20;2.40;;;;;;;;;;5066986;28;20131;-71
2023/08/05 04:29:32;;;;;;;3.97;2.53;;;;;;;;;;5061281;28;20069;-71
2023/08/05 04:32:00;;;;;;;4.97;2.60;;;;;;;;;;5053396;28;20056;-71
2023/08/05 04:34:29;;;;;;;5.93;2.80;;;;;;;;;;5058112;28;20511;-71
2023/08/05 04:36:56;;;;;;;3.08;1.98;;;;;;;;;;5061649;28;20049;-71
2023/08/05 04:39:24;;;;;;;4.18;2.40;;;;;;;;;;5064944;28;20032;-71
2023/08/05 04:41:52;;;;;;;4.00;1.98;;;;;;;;;;5059535;28;20052;-72
2023/08/05 04:44:19;;;;;;;3.72;2.17;;;;;;;;;;5062998;28;20049;-71
2023/08/05 04:46:46;;;;;;;8.02;2.00;;;;;;;;;;5066285;28;20044;-72
2023/08/05 04:49:13;;;;;;;3.78;2.20;;;;;;;;;;5057824;28;20053;-71
2023/08/05 04:51:41;;;;;;;4.90;1.88;;;;;;;;;;5062862;28;20056;-71
2023/08/05 04:54:08;;;;;;;3.38;1.70;;;;;;;;;;5066460;28;20060;-71
2023/08/05 04:56:36;;;;;;;3.53;2.20;;;;;;;;;;5067414;28;20079;-72
2023/08/05 04:59:04;;;;;;;3.85;2.10;;;;;;;;;;5063066;28;20040;-72
2023/08/05 05:01:32;;;;;;;3.33;1.85;;;;;;;;;;5068852;28;20427;-71
2023/08/05 05:03:59;;;;;;;3.28;2.00;;;;;;;;;;5065375;28;20048;-71
2023/08/05 05:06:26;;;;;;;2.83;1.70;;;;;;;;;;5064764;28;20055;-72
2023/08/05 05:08:54;;;;;;;3.88;2.42;;;;;;;;;;5066171;28;20093;-71
2023/08/05 05:11:21;;;;;;;4.93;2.20;;;;;;;;;;5064296;28;20052;-71
2023/08/05 05:13:50;;;;;;;6.13;2.30;;;;;;;;;;5069189;28;20519;-71
2023/08/05 05:16:18;;;;;;;3.78;2.08;;;;;;;;;;5068444;28;20098;-72
2023/08/05 05:18:45;;;;;;;2.95;2.20;;;;;;;;;;5067888;28;20044;-72
2023/08/05 05:21:13;;;;;;;3.78;1.83;;;;;;;;;;5064978;28;20421;-72
2023/08/05 05:23:40;;;;;;;8.10;2.10;;;;;;;;;;5067100;28;20164;-71
2023/08/05 05:26:08;;;;;;;3.70;2.10;;;;;;;;;;5067903;28;20071;-71
2023/08/05 05:28:35;;;;;;;4.00;2.60;;;;;;;;;;5062413;28;20064;-72
2023/08/05 05:31:04;;;;;;;4.07;2.00;;;;;;;;;;5063112;28;20056;-71
2023/08/05 05:33:31;;;;;;;4.53;2.50;;;;;;;;;;5064037;28;20049;-72
2023/08/05 05:35:59;;;;;;;4.88;2.20;;;;;;;;;;5065671;28;20056;-71
2023/08/05 05:38:26;;;;;;;5.00;1.85;;;;;;;;;;5060567;28;20506;-72
2023/08/05 05:40:54;;;;;;;4.00;2.05;;;;;;;;;;5068366;28;20049;-72
2023/08/05 05:43:21;;;;;;;3.72;2.47;;;;;;;;;;5066222;28;20538;-72
2023/08/05 05:45:49;;;;;;;2.55;1.85;;;;;;;;;;5063942;28;20455;-72
2023/08/05 05:48:18;;;;;;;5.93;2.20;;;;;;;;;;5064691;28;20139;-72
2023/08/05 05:50:45;;;;;;;3.25;1.80;;;;;;;;;;5062627;28;20094;-71
2023/08/05 05:53:14;;;;;;;3.65;1.83;;;;;;;;;;5060196;28;20048;-71
2023/08/05 05:55:42;;;;;;;6.78;2.10;;;;;;;;;;5061392;28;20081;-72
2023/08/05 05:58:09;;;;;;;6.45;1.92;;;;;;;;;;5063310;28;20068;-72
2023/08/05 06:00:39;;;;;;;5.72;1.98;;;;;;;;;;5063479;28;20105;-72
2023/08/05 06:03:06;;;;;;;4.38;2.20;;;;;;;;;;5067646;28;20131;-72
2023/08/05 06:05:35;;;;;;;3.60;1.85;;;;;;;;;;5066246;28;20464;-71
2023/08/05 06:08:02;;;;;;;7.85;1.92;;;;;;;;;;5064267;28;20066;-71
2023/08/05 06:10:30;;;;;;;4.95;1.70;;;;;;;;;;5061561;28;20126;-72
2023/08/05 06:12:59;;;;;;;4.93;1.83;;;;;;;;;;5064240;28;20061;-71
2023/08/05 06:15:26;;;;;;;6.55;2.08;;;;;;;;;;5062608;28;20053;-72
2023/08/05 06:17:53;;;;;;;3.17;1.67;;;;;;;;;;5067649;28;20128;-72
2023/08/05 06:20:20;;;;;;;8.25;2.30;;;;;;;;;;5061689;28;20412;-72
2023/08/05 06:22:49;;;;;;;5.68;2.20;;;;;;;;;;5068489;28;20045;-71
2023/08/05 06:25:16;;;;;;;3.80;1.60;;;;;;;;;;5060351;28;20043;-71
2023/08/05 06:27:44;;;;;;;3.83;1.50;;;;;;;;;;5061330;28;20054;-71
2023/08/05 06:30:11;;;;;;;3.80;1.48;;;;;;;;;;5059063;28;20045;-72
2023/08/05 06:32:39;;;;;;;6.15;1.70;;;;;;;;;;5065054;28;20048;-72
2023/08/05 06:35:06;;;;;;;3.90;1.75;;;;;;;;;;5069396;28;20045;-72
2023/08/05 06:37:34;;;;;;;4.22;1.50;;;;;;;;;;5063021;28;20505;-72
2023/08/05 06:40:03;;;;;;;2.75;1.70;;;;;;;;;;5065778;28;20059;-72
2023/08/05 06:42:31;;;;;;;2.40;1.50;;;;;;;;;;5064001;28;20053;-72
2023/08/05 06:44:58;;;;;;;2.92;1.63;;;;;;;;;;5069813;28;20166;-71
2023/08/05 06:47:30;;;;;;;5.25;1.80;;;;;;;;;;5066802;28;20075;-72
2023/08/05 06:49:58;;;;;;;4.10;1.77;;;;;;;;;;5063062;28;20055;-72
2023/08/05 06:52:25;;;;;;;5.45;1.35;;;;;;;;;;5064338;28;20048;-73
2023/08/05 06:54:52;;;;;;;2.70;1.42;;;;;;;;;;5065190;28;20044;-73
2023/08/05 06:57:21;;;;;;;3.10;1.40;;;;;;;;;;5059477;28;20101;-72
2023/08/05 06:59:48;;;;;;;3.03;1.33;;;;;;;;;;5061446;28;20051;-71
2023/08/05 07:02:15;;;;;;;3.70;1.40;;;;;;;;;;5066659;28;20056;-72
2023/08/05 07:04:43;;;;;;;4.03;1.60;;;;;;;;;;5063525;28;20127;-72
2023/08/05 07:07:10;;;;;;;2.35;1.40;;;;;;;;;;5064603;28;20079;-72
2023/08/05 07:09:37;;;;;;;3.15;1.60;;;;;;;;;;5068002;28;20048;-72
2023/08/05 07:12:05;;;;;;;5.28;1.10;;;;;;;;;;5063847;28;20055;-71
2023/08/05 07:14:33;;;;;;;5.53;1.50;;;;;;;;;;5065435;28;20128;-72
2023/08/05 07:17:01;;;;;;;2.65;1.42;;;;;;;;;;5063022;28;20048;-72
2023/08/05 07:19:28;;;;;;;4.03;1.50;;;;;;;;;;5066069;28;20055;-72
2023/08/05 07:21:55;;;;;;;4.07;1.30;;;;;;;;;;5067073;28;20049;-71
2023/08/05 07:24:22;;;;;;;6.53;1.60;;;;;;;;;;5064050;28;20540;-71
2023/08/05 07:26:50;;;;;;;5.30;1.33;;;;;;;;;;5065003;28;20175;-72
2023/08/05 07:29:17;;;;;;;3.90;1.50;;;;;;;;;;5064595;28;20053;-73
2023/08/05 07:31:46;;;;;;;4.40;1.42;;;;;;;;;;5066243;28;20048;-73
2023/08/05 07:34:13;;;;;;;3.30;1.50;;;;;;;;;;5064357;28;20051;-73
2023/08/05 07:36:41;;;;;;;2.45;1.70;;;;;;;;;;5063863;28;20515;-73
2023/08/05 07:39:08;;;;;;;3.08;1.52;;;;;;;;;;5066752;28;20613;-72
2023/08/05 07:41:36;;;;;;;5.03;1.70;;;;;;;;;;5064251;28;20064;-73
2023/08/05 07:44:04;;;;;;;2.28;1.15;;;;;;;;;;5067550;28;20048;-72
2023/08/05 07:46:32;;;;;;;2.55;1.45;;;;;;;;;;5062144;28;20056;-73
2023/08/05 07:49:01;;;;;;;2.28;1.30;;;;;;;;;;5065725;28;20131;-72
2023/08/05 07:51:29;;;;;;;2.25;1.35;;;;;;;;;;5067522;28;20074;-74
2023/08/05 07:53:57;;;;;;;4.63;1.58;;;;;;;;;;5065436;28;20045;-72
2023/08/05 07:56:25;;;;;;;4.88;1.80;;;;;;;;;;5062838;28;20044;-73
2023/08/05 07:58:52;;;;;;;4.90;1.70;;;;;;;;;;5066381;28;20052;-72
2023/08/05 08:01:22;;;;;;;2.70;1.55;;;;;;;;;;5061534;28;20048;-72
2023/08/05 08:03:51;;;;;;;6.15;1.77;;;;;;;;;;5065801;28;20048;-73
2023/08/05 08:06:20;;;;;;;3.10;1.40;;;;;;;;;;5068725;28;20127;-73
2023/08/05 08:08:48;;;;;;;2.72;1.52;;;;;;;;;;5057809;28;20041;-74
2023/08/05 08:11:15;;;;;;;2.65;1.80;;;;;;;;;;5065056;28;20056;-72
2023/08/05 08:13:42;;;;;;;6.82;1.73;;;;;;;;;;5056013;28;20056;-72
2023/08/05 08:16:15;;;;;;;4.97;1.60;;;;;;;;;;5066965;28;20049;-73
2023/08/05 08:18:43;;;;;;;3.33;1.60;;;;;;;;;;5067874;28;20056;-72
2023/08/05 08:21:10;;;;;;;2.70;1.45;;;;;;;;;;5063419;28;20056;-72
2023/08/05 08:23:39;;;;;;;3.95;1.40;;;;;;;;;;5065434;28;20067;-72
2023/08/05 08:26:06;;;;;;;2.80;1.45;;;;;;;;;;5058306;28;20143;-73
2023/08/05 08:28:33;;;;;;;3.90;1.45;;;;;;;;;;5069494;28;20135;-74
2023/08/05 08:31:00;;;;;;;2.20;1.60;;;;;;;;;;5070946;28;20044;-72
2023/08/05 08:33:28;;;;;;;3.80;1.50;;;;;;;;;;5068853;28;20049;-73
2023/08/05 08:35:55;;;;;;;2.80;1.30;;;;;;;;;;5069031;28;20116;-72
2023/08/05 08:38:23;;;;;;;2.20;1.27;;;;;;;;;;5069549;28;20119;-73
2023/08/05 08:40:53;;;;;;;4.53;1.70;;;;;;;;;;5069863;28;20102;-73
2023/08/05 08:43:20;;;;;;;5.18;1.40;;;;;;;;;;5068330;28;20666;-72
2023/08/05 08:45:48;;;;;;;3.47;1.30;;;;;;;;;;5066459;28;20060;-73
2023/08/05 08:48:16;;;;;;;2.95;1.40;;;;;;;;;;5071140;28;20567;-73
2023/08/05 08:50:44;;;;;;;3.03;1.50;;;;;;;;;;5066102;28;20048;-72
2023/08/05 08:53:12;;;;;;;3.75;1.20;;;;;;;;;;5069441;28;20083;-72
2023/08/05 08:55:40;;;;;;;4.32;1.60;;;;;;;;;;5064809;28;20419;-74
2023/08/05 08:58:09;;;;;;;5.38;1.67;;;;;;;;;;5071576;28;20048;-73
2023/08/05 09:00:36;;;;;;;3.03;1.23;;;;;;;;;;5068878;28;20056;-74
2023/08/05 09:03:05;;;;;;;2.05;1.30;;;;;;;;;;5065064;28;20054;-74
2023/08/05 09:05:36;;;;;;;4.07;1.42;;;;;;;;;;5067508;28;20095;-74
2023/08/05 09:08:04;;;;;;;2.72;1.50;;;;;;;;;;5066757;28;20139;-73
2023/08/05 09:10:31;;;;;;;9.68;1.52;;;;;;;;;;5065099;28;20056;-74
2023/08/05 09:13:00;;;;;;;2.67;1.30;;;;;;;;;;5068416;28;20053;-74
2023/08/05 09:15:34;;;;;;;2.63;1.40;;;;;;;;;;5070147;28;20056;-72
2023/08/05 09:18:03;;;;;;;3.85;1.50;;;;;;;;;;5070631;28;20042;-73
2023/08/05 09:20:32;;;;;;;2.90;1.40;;;;;;;;;;5068742;28;20076;-74
2023/08/05 09:23:01;;;;;;;5.43;1.65;;;;;;;;;;5066894;28;20082;-73
2023/08/05 09:25:28;;;;;;;3.85;1.40;;;;;;;;;;5069430;28;20045;-73
2023/08/05 09:27:56;;;;;;;2.65;1.40;;;;;;;;;;5069934;28;20045;-73
2023/08/05 09:30:24;;;;;;;2.88;1.65;;;;;;;;;;5068973;28;20067;-73
2023/08/05 09:32:53;;;;;;;4.13;1.75;;;;;;;;;;5061245;28;20045;-73
2023/08/05 09:35:20;;;;;;;3.22;1.52;;;;;;;;;;5068917;28;20052;-72
2023/08/05 09:37:48;;;;;;;3.90;1.90;;;;;;;;;;5065819;28;20048;-73
2023/08/05 09:40:17;;;;;;;5.00;1.58;;;;;;;;;;5067617;28;20044;-73
2023/08/05 09:42:47;;;;;;;3.90;1.58;;;;;;;;;;5067286;28;20048;-73
2023/08/05 09:45:15;;;;;;;2.78;1.67;;;;;;;;;;5067057;28;20053;-73
2023/08/05 09:47:43;;;;;;;3.67;1.50;;;;;;;;;;5069574;28;20053;-73
2023/08/05 09:50:14;;;;;;;3.38;1.50;;;;;;;;;;5066225;28;20149;-72
2023/08/05 09:52:41;;;;;;;2.85;1.40;;;;;;;;;;5062903;28;20044;-72
2023/08/05 09:55:13;;;;;;;4.40;1.50;;;;;;;;;;5063896;28;20052;-73
2023/08/05 09:57:41;;;;;;;2.42;1.42;;;;;;;;;;5068498;28;20055;-73
2023/08/05 10:00:11;;;;;;;3.83;1.60;;;;;;;;;;5062703;28;20045;-73
2023/08/05 10:02:38;;;;;;;2.17;1.60;;;;;;;;;;5070102;28;20059;-73
2023/08/05 10:05:06;;;;;;;2.67;1.35;;;;;;;;;;5064878;28;20048;-72
2023/08/05 10:07:35;;;;;;;4.18;1.60;;;;;;;;;;5058622;28;20058;-73
2023/08/05 10:10:02;;;;;;;2.33;1.40;;;;;;;;;;5063329;28;20052;-72
2023/08/05 10:12:31;;;;;;;3.85;1.73;;;;;;;;;;5061606;28;20372;-72
2023/08/05 10:14:59;;;;;;;3.60;1.50;;;;;;;;;;5068723;28;20506;-74
2023/08/05 10:17:27;;;;;;;4.43;1.75;;;;;;;;;;5067694;28;20048;-73
2023/08/05 10:19:55;;;;;;;6.95;1.83;;;;;;;;;;5062930;28;20053;-73
2023/08/05 10:22:23;;;;;;;2.83;1.40;;;;;;;;;;5066469;28;20426;-73
2023/08/05 10:24:56;;;;;;;3.00;1.77;;;;;;;;;;5061882;28;20057;-73
2023/08/05 10:27:36;;;;;;;2.65;1.42;;;;;;;;;;5056892;28;20124;-74
2023/08/05 10:30:08;;;;;;;2.78;1.30;;;;;;;;;;5057834;28;20056;-74
2023/08/05 10:32:35;;;;;;;3.85;1.60;;;;;;;;;;5064193;28;20048;-73
2023/08/05 10:35:21;;;;;;;1.80;1.50;;;;;;;;;;5061848;28;20064;-73
2023/08/05 10:37:49;;;;;;;2.33;1.50;;;;;;;;;;5062738;28;20059;-72
2023/08/05 10:40:38;;;;;;;1.83;1.40;;;;;;;;;;5062943;28;20052;-73
2023/08/05 10:43:05;;;;;;;2.50;1.40;;;;;;;;;;5063590;28;20127;-73
2023/08/05 10:45:33;;;;;;;2.97;1.52;;;;;;;;;;5065379;28;20060;-73
2023/08/05 10:48:01;;;;;;;4.43;1.60;;;;;;;;;;5062875;28;20037;-73
2023/08/05 10:50:35;;;;;;;3.97;1.88;;;;;;;;;;5059286;28;20063;-72
2023/08/05 10:53:05;;;;;;;2.65;1.42;;;;;;;;;;5058588;28;20061;-73
2023/08/05 10:55:45;;;;;;;2.20;1.33;;;;;;;;;;5058209;28;20063;-73
2023/08/05 10:58:12;;;;;;;2.33;1.33;;;;;;;;;;5058862;28;20036;-71
2023/08/05 11:00:41;;;;;;;3.15;1.52;;;;;;;;;;5064695;28;20478;-73
2023/08/05 11:03:25;;;;;;;2.75;1.30;;;;;;;;;;5060158;28;20102;-73
2023/08/05 11:05:53;;;;;;;3.38;1.52;;;;;;;;;;5062061;28;20057;-73
2023/08/05 11:08:21;;;;;;;3.75;1.30;;;;;;;;;;5063595;28;20492;-72
2023/08/05 11:10:50;;;;;;;1.88;1.20;;;;;;;;;;5066266;28;20404;-73
2023/08/05 11:13:17;;;;;;;2.50;1.40;;;;;;;;;;5064342;28;20076;-73
2023/08/05 11:16:00;;;;;;;2.55;1.38;;;;;;;;;;5068362;28;20135;-73
2023/08/05 11:18:27;;;;;;;2.78;1.30;;;;;;;;;;5066784;28;20052;-72
2023/08/05 11:20:55;;;;;;;9.50;1.63;;;;;;;;;;5066179;28;20044;-72
2023/08/05 11:23:22;;;;;;;3.33;1.52;;;;;;;;;;5068605;28;20052;-72
2023/08/05 11:25:51;;;;;;;3.38;1.45;;;;;;;;;;5065920;28;20152;-72
2023/08/05 11:28:18;;;;;;;4.75;1.50;;;;;;;;;;5066196;28;20041;-73
2023/08/05 11:30:46;;;;;;;5.90;1.60;;;;;;;;;;5061139;28;20053;-72
2023/08/05 11:33:13;;;;;;;3.15;1.73;;;;;;;;;;5067680;28;20055;-72
2023/08/05 11:35:44;;;;;;;2.40;1.50;;;;;;;;;;5062963;28;20427;-73
2023/08/05 11:38:11;;;;;;;2.80;1.38;;;;;;;;;;5062820;28;20048;-73
2023/08/05 11:40:42;;;;;;;3.17;1.40;;;;;;;;;;5061964;28;20044;-73
2023/08/05 11:43:10;;;;;;;3.90;1.60;;;;;;;;;;5065333;28;20045;-73
2023/08/05 11:45:41;;;;;;;1.67;1.25;;;;;;;;;;5055266;28;20075;-72
2023/08/05 11:48:17;;;;;;;2.70;1.45;;;;;;;;;;5063288;28;20124;-73
2023/08/05 11:50:44;;;;;;;4.60;1.80;;;;;;;;;;5059084;28;20048;-73
2023/08/05 11:53:12;;;;;;;2.20;1.38;;;;;;;;;;5058860;28;20052;-73
2023/08/05 11:55:42;;;;;;;1.75;1.23;;;;;;;;;;5059996;28;20052;-73
2023/08/05 11:58:11;;;;;;;2.08;1.50;;;;;;;;;;5061082;28;20051;-73
2023/08/05 12:00:39;;;;;;;3.05;1.40;;;;;;;;;;5059413;28;20045;-73
2023/08/05 12:03:07;;;;;;;2.85;1.70;;;;;;;;;;5063984;28;20512;-73
2023/08/05 12:05:34;;;;;;;2.97;1.73;;;;;;;;;;5060857;28;20074;-73
2023/08/05 12:08:01;;;;;;;5.05;1.80;;;;;;;;;;5059315;28;20053;-73
2023/08/05 12:10:29;;;;;;;2.45;1.60;;;;;;;;;;5063325;28;20052;-73
2023/08/05 12:12:58;;;;;;;4.50;1.98;;;;;;;;;;5055526;28;20057;-72
2023/08/05 12:15:27;;;;;;;3.97;1.80;;;;;;;;;;5068410;28;20136;-73
2023/08/05 12:17:56;;;;;;;4.95;1.67;;;;;;;;;;5065906;28;20048;-73
2023/08/05 12:20:24;;;;;;;2.17;1.50;;;;;;;;;;5062241;28;20388;-74
2023/08/05 12:22:51;;;;;;;3.17;1.70;;;;;;;;;;5065289;28;20044;-73
2023/08/05 12:25:19;;;;;;;2.20;1.60;;;;;;;;;;5067358;28;20041;-72
2023/08/05 12:27:46;;;;;;;3.40;1.52;;;;;;;;;;5063687;28;20056;-72
2023/08/05 12:30:14;;;;;;;2.30;1.73;;;;;;;;;;5067611;28;20044;-73
2023/08/05 12:32:42;;;;;;;1.83;1.60;;;;;;;;;;5060420;28;20126;-73
2023/08/05 12:35:10;;;;;;;2.55;1.67;;;;;;;;;;5056652;28;20053;-73
2023/08/05 12:37:39;;;;;;;2.88;1.67;;;;;;;;;;5058804;28;20098;-74
2023/08/05 12:40:07;;;;;;;2.97;1.80;;;;;;;;;;5060874;28;20114;-73
2023/08/05 12:42:35;;;;;;;4.72;1.67;;;;;;;;;;5062607;28;20530;-72
2023/08/05 12:45:04;;;;;;;3.13;1.70;;;;;;;;;;5058526;28;20434;-72
2023/08/05 12:47:31;;;;;;;2.88;1.80;;;;;;;;;;5054855;28;20056;-73
2023/08/05 12:50:00;;;;;;;3.53;2.00;;;;;;;;;;5068072;28;20506;-72
2023/08/05 12:52:27;;;;;;;3.13;1.98;;;;;;;;;;5063696;28;20061;-72
2023/08/05 12:54:54;;;;;;;2.72;1.77;;;;;;;;;;5060037;28;20072;-73
2023/08/05 12:57:22;;;;;;;3.05;1.80;;;;;;;;;;5058140;28;20743;-72
2023/08/05 12:59:49;;;;;;;3.00;1.60;;;;;;;;;;5062166;28;20086;-72
2023/08/05 13:02:21;;;;;;;2.75;2.20;;;;;;;;;;5060610;28;20048;-72
2023/08/05 13:04:48;;;;;;;2.75;1.92;;;;;;;;;;5062545;28;20086;-73
2023/08/05 13:07:17;;;;;;;2.25;1.65;;;;;;;;;;5064463;28;20120;-73
2023/08/05 13:09:44;;;;;;;2.53;1.70;;;;;;;;;;5065636;28;20051;-73
2023/08/05 13:12:13;;;;;;;6.25;1.85;;;;;;;;;;5058440;28;20044;-73
2023/08/05 13:14:40;;;;;;;3.30;2.08;;;;;;;;;;5064812;28;20062;-72
2023/08/05 13:17:08;;;;;;;3.15;1.90;;;;;;;;;;5065153;28;20048;-72
2023/08/05 13:19:35;;;;;;;3.83;1.88;;;;;;;;;;5064687;28;20052;-73
2023/08/05 13:22:03;;;;;;;2.50;1.45;;;;;;;;;;5065881;28;20044;-73
2023/08/05 13:24:33;;;;;;;1.20;0.98;;;;;;;;;;5061698;28;20520;-71
2023/08/05 13:27:00;;;;;;;1.35;0.85;;;;;;;;;;5067302;28;20052;-74
2023/08/05 13:29:28;;;;;;;0.80;0.63;;;;;;;;;;5063937;28;20052;-71
2023/08/05 13:31:55;;;;;;;1.33;0.80;;;;;;;;;;5067291;28;20059;-74
2023/08/05 13:34:22;;;;;;;1.10;0.80;;;;;;;;;;5068824;28;20475;-70
2023/08/05 13:36:50;;;;;;;2.72;0.90;;;;;;;;;;5070580;28;20048;-69
2023/08/05 13:39:17;;;;;;;1.95;0.80;;;;;;;;;;5064101;28;20052;-67
2023/08/05 13:41:45;;;;;;;2.35;1.02;;;;;;;;;;5067359;28;20502;-69
2023/08/05 13:44:13;;;;;;;2.28;0.88;;;;;;;;;;5069821;28;20134;-69
2023/08/05 13:46:40;;;;;;;1.45;0.80;;;;;;;;;;5065859;28;20049;-69
2023/08/05 13:49:07;;;;;;;3.80;0.80;;;;;;;;;;5069235;28;20059;-69
2023/08/05 13:51:34;;;;;;;2.38;1.00;;;;;;;;;;5066475;28;20536;-68
2023/08/05 13:54:02;;;;;;;2.35;1.02;;;;;;;;;;5059534;28;20492;-69
2023/08/05 13:56:29;;;;;;;2.65;0.80;;;;;;;;;;5066137;28;20057;-70
2023/08/05 13:58:58;;;;;;;2.15;1.05;;;;;;;;;;5063195;28;20063;-70
2023/08/05 14:01:25;;;;;;;2.25;1.30;;;;;;;;;;5068241;28;20060;-70
2023/08/05 14:03:52;;;;;;;1.83;1.20;;;;;;;;;;5067344;28;20053;-70
2023/08/05 14:06:19;;;;;;;3.53;1.35;;;;;;;;;;5062999;28;20068;-70
2023/08/05 14:08:47;;;;;;;7.55;1.70;;;;;;;;;;5066355;28;20041;-70
2023/08/05 14:11:14;;;;;;;3.22;1.50;;;;;;;;;;5068960;28;20056;-70
2023/08/05 14:13:41;;;;;;;2.15;1.40;;;;;;;;;;5063479;28;20044;-69
2023/08/05 14:16:10;;;;;;;4.72;1.75;;;;;;;;;;5070521;28;20045;-70
2023/08/05 14:18:37;;;;;;;11.48;1.98;;;;;;;;;;5067464;28;20155;-70
2023/08/05 14:21:06;;;;;;;5.30;1.90;;;;;;;;;;5061693;28;20049;-70
2023/08/05 14:23:33;;;;;;;3.90;2.00;;;;;;;;;;5059653;28;20055;-70
2023/08/05 14:26:00;;;;;;;3.53;2.22;;;;;;;;;;5061941;28;20045;-70
2023/08/05 14:28:28;;;;;;;3.05;1.95;;;;;;;;;;5061297;28;20067;-70
2023/08/05 14:30:55;;;;;;;3.70;2.08;;;;;;;;;;5067027;28;20084;-69
2023/08/05 14:33:24;;;;;;;41.55;4.40;;;;;;;;;;5060759;28;20071;-69
2023/08/05 14:35:51;;;;;;;77.68;5.97;;;;;;;;;;5063153;28;20036;-70
2023/08/05 14:38:19;;;;;;;98.03;7.90;;;;;;;;;;5069317;28;20056;-70
2023/08/05 14:40:46;;;;;;;44.30;4.50;;;;;;;;;;5068085;28;20052;-70
2023/08/05 14:43:13;;;;;;;103.55;7.95;;;;;;;;;;5068071;28;20051;-70
2023/08/05 14:45:40;;;;;;;109.70;9.18;;;;;;;;;;5060600;28;20135;-70
2023/08/05 14:48:08;;;;;;;6.70;3.50;;;;;;;;;;5064064;28;20044;-70